createdAt,value
2022-12-10T00:00:59.947Z,1003.02
2022-12-10T00:01:59.979Z,1003.03
2022-12-10T00:02:59.910Z,1003.05
2022-12-10T00:03:59.889Z,1003.06
2022-12-10T00:04:59.904Z,1003.06
2022-12-10T00:05:59.896Z,1003.05
2022-12-10T00:07:00.055Z,1003.04
2022-12-10T00:07:59.948Z,1003.03
2022-12-10T00:08:59.904Z,1003.03
2022-12-10T00:09:59.899Z,1003.03
2022-12-10T00:10:59.822Z,1003.04
2022-12-10T00:11:59.859Z,1003.05
2022-12-10T00:12:59.867Z,1003.05
2022-12-10T00:13:59.791Z,1003.06
2022-12-10T00:14:59.793Z,1003.06
2022-12-10T00:15:59.806Z,1003.08
2022-12-10T00:16:59.799Z,1003.08
2022-12-10T00:17:59.815Z,1003.07
2022-12-10T00:18:59.828Z,1003.07
2022-12-10T00:19:59.740Z,1003.06
2022-12-10T00:20:59.713Z,1003.07
2022-12-10T00:21:59.691Z,1003.07
2022-12-10T00:22:59.746Z,1003.09
2022-12-10T00:23:59.717Z,1003.10
2022-12-10T00:24:59.715Z,1003.11
2022-12-10T00:25:59.655Z,1003.13
2022-12-10T00:26:59.672Z,1003.14
2022-12-10T00:27:59.776Z,1003.15
2022-12-10T00:28:59.682Z,1003.16
2022-12-10T00:29:59.635Z,1003.17
2022-12-10T00:30:59.649Z,1003.16
2022-12-10T00:31:59.612Z,1003.17
2022-12-10T00:32:59.619Z,1003.17
2022-12-10T00:33:59.604Z,1003.17
2022-12-10T00:34:59.620Z,1003.17
2022-12-10T00:35:59.619Z,1003.16
2022-12-10T00:36:59.592Z,1003.16
2022-12-10T00:37:59.523Z,1003.17
2022-12-10T00:38:59.560Z,1003.18
2022-12-10T00:39:59.520Z,1003.19
2022-12-10T00:40:59.556Z,1003.21
2022-12-10T00:41:59.491Z,1003.21
2022-12-10T00:42:59.545Z,1003.21
2022-12-10T00:43:59.493Z,1003.21
2022-12-10T00:44:59.492Z,1003.21
2022-12-10T00:45:59.631Z,1003.21
2022-12-10T00:46:59.570Z,1003.22
2022-12-10T00:47:59.560Z,1003.21
2022-12-10T00:48:59.445Z,1003.20
2022-12-10T00:49:59.404Z,1003.20
2022-12-10T00:50:59.475Z,1003.20
2022-12-10T00:51:59.405Z,1003.20
2022-12-10T00:52:59.394Z,1003.21
2022-12-10T00:53:59.472Z,1003.22
2022-12-10T00:54:59.452Z,1003.23
2022-12-10T00:55:59.388Z,1003.23
2022-12-10T00:56:59.417Z,1003.23
2022-12-10T00:57:59.421Z,1003.22
2022-12-10T00:58:59.345Z,1003.20
2022-12-10T00:59:59.352Z,1003.21
2022-12-10T01:00:59.404Z,1003.22
2022-12-10T01:01:59.391Z,1003.22
2022-12-10T01:02:59.353Z,1003.23
2022-12-10T01:03:59.324Z,1003.23
2022-12-10T01:04:59.287Z,1003.22
2022-12-10T01:05:59.266Z,1003.21
2022-12-10T01:06:59.269Z,1003.20
2022-12-10T01:07:59.347Z,1003.20
2022-12-10T01:08:59.266Z,1003.20
2022-12-10T01:10:00.164Z,1003.21
2022-12-10T01:10:59.249Z,1003.21
2022-12-10T01:11:59.206Z,1003.22
2022-12-10T01:12:59.233Z,1003.22
2022-12-10T01:13:59.198Z,1003.22
2022-12-10T01:14:59.301Z,1003.23
2022-12-10T01:15:59.204Z,1003.24
2022-12-10T01:16:59.160Z,1003.26
2022-12-10T01:17:59.180Z,1003.28
2022-12-10T01:18:59.177Z,1003.29
2022-12-10T01:19:59.170Z,1003.30
2022-12-10T01:20:59.184Z,1003.31
2022-12-10T01:21:59.163Z,1003.31
2022-12-10T01:22:59.214Z,1003.33
2022-12-10T01:23:59.219Z,1003.34
2022-12-10T01:24:59.155Z,1003.36
2022-12-10T01:25:59.131Z,1003.36
2022-12-10T01:26:59.101Z,1003.37
2022-12-10T01:27:59.108Z,1003.37
2022-12-10T01:28:59.041Z,1003.36
2022-12-10T01:29:59.113Z,1003.36
2022-12-10T01:30:59.049Z,1003.35
2022-12-10T01:31:59.070Z,1003.36
2022-12-10T01:32:59.047Z,1003.36
2022-12-10T01:33:59.215Z,1003.36
2022-12-10T01:34:59.078Z,1003.37
2022-12-10T01:35:59.009Z,1003.37
2022-12-10T01:36:58.991Z,1003.38
2022-12-10T01:37:58.967Z,1003.38
2022-12-10T01:38:58.954Z,1003.38
2022-12-10T01:39:58.969Z,1003.38
2022-12-10T01:40:58.984Z,1003.39
2022-12-10T01:41:58.931Z,1003.39
2022-12-10T01:43:00.497Z,1003.40
2022-12-10T01:43:58.954Z,1003.39
2022-12-10T01:44:58.927Z,1003.39
2022-12-10T01:45:58.919Z,1003.39
2022-12-10T01:46:58.846Z,1003.39
2022-12-10T01:48:02.295Z,1003.40
2022-12-10T01:48:58.892Z,1003.42
2022-12-10T01:49:58.899Z,1003.43
2022-12-10T01:50:58.911Z,1003.45
2022-12-10T01:51:58.875Z,1003.46
2022-12-10T01:52:58.856Z,1003.47
2022-12-10T01:53:58.819Z,1003.47
2022-12-10T01:54:58.808Z,1003.47
2022-12-10T01:55:58.773Z,1003.47
2022-12-10T01:56:58.819Z,1003.48
2022-12-10T01:57:58.791Z,1003.49
2022-12-10T01:58:58.780Z,1003.50
2022-12-10T01:59:58.844Z,1003.51
2022-12-10T02:00:58.859Z,1003.52
2022-12-10T02:01:58.773Z,1003.53
2022-12-10T02:02:58.777Z,1003.53
2022-12-10T02:03:58.740Z,1003.54
2022-12-10T02:04:58.707Z,1003.54
2022-12-10T02:05:58.740Z,1003.54
2022-12-10T02:06:58.695Z,1003.55
2022-12-10T02:07:58.716Z,1003.55
2022-12-10T02:08:58.652Z,1003.54
2022-12-10T02:09:58.692Z,1003.54
2022-12-10T02:10:58.702Z,1003.53
2022-12-10T02:11:58.670Z,1003.53
2022-12-10T02:12:58.621Z,1003.52
2022-12-10T02:13:58.582Z,1003.51
2022-12-10T02:14:58.698Z,1003.51
2022-12-10T02:15:58.678Z,1003.50
2022-12-10T02:16:58.642Z,1003.51
2022-12-10T02:17:58.619Z,1003.51
2022-12-10T02:18:58.594Z,1003.51
2022-12-10T02:19:58.574Z,1003.53
2022-12-10T02:20:58.591Z,1003.53
2022-12-10T02:21:58.529Z,1003.55
2022-12-10T02:22:58.520Z,1003.55
2022-12-10T02:23:58.495Z,1003.56
2022-12-10T02:24:58.533Z,1003.55
2022-12-10T02:25:58.532Z,1003.56
2022-12-10T02:26:58.483Z,1003.57
2022-12-10T02:27:58.467Z,1003.58
2022-12-10T02:28:58.515Z,1003.59
2022-12-10T02:29:58.491Z,1003.59
2022-12-10T02:30:58.438Z,1003.59
2022-12-10T02:31:58.495Z,1003.59
2022-12-10T02:32:58.503Z,1003.58
2022-12-10T02:33:58.479Z,1003.57
2022-12-10T02:34:58.480Z,1003.56
2022-12-10T02:35:58.487Z,1003.55
2022-12-10T02:36:58.444Z,1003.54
2022-12-10T02:37:58.391Z,1003.54
2022-12-10T02:38:58.406Z,1003.54
2022-12-10T02:39:58.410Z,1003.53
2022-12-10T02:40:58.341Z,1003.52
2022-12-10T02:41:58.324Z,1003.52
2022-12-10T02:42:58.383Z,1003.51
2022-12-10T02:43:58.282Z,1003.50
2022-12-10T02:44:58.308Z,1003.50
2022-12-10T02:45:58.429Z,1003.49
2022-12-10T02:46:58.295Z,1003.49
2022-12-10T02:47:58.293Z,1003.49
2022-12-10T02:48:58.348Z,1003.49
2022-12-10T02:49:58.238Z,1003.49
2022-12-10T02:50:58.323Z,1003.49
2022-12-10T02:51:58.276Z,1003.50
2022-12-10T02:52:58.355Z,1003.50
2022-12-10T02:53:58.263Z,1003.51
2022-12-10T02:54:58.238Z,1003.51
2022-12-10T02:55:58.209Z,1003.51
2022-12-10T02:56:58.272Z,1003.49
2022-12-10T02:57:58.205Z,1003.48
2022-12-10T02:58:58.171Z,1003.47
2022-12-10T02:59:58.128Z,1003.46
2022-12-10T03:00:58.184Z,1003.45
2022-12-10T03:01:58.145Z,1003.44
2022-12-10T03:02:58.158Z,1003.43
2022-12-10T03:03:58.145Z,1003.44
2022-12-10T03:04:58.117Z,1003.44
2022-12-10T03:05:58.099Z,1003.46
2022-12-10T03:06:58.099Z,1003.47
2022-12-10T03:07:58.090Z,1003.49
2022-12-10T03:08:58.073Z,1003.51
2022-12-10T03:09:58.050Z,1003.52
2022-12-10T03:10:58.102Z,1003.52
2022-12-10T03:11:58.082Z,1003.53
2022-12-10T03:12:58.058Z,1003.53
2022-12-10T03:13:58.033Z,1003.53
2022-12-10T03:14:57.999Z,1003.52
2022-12-10T03:15:58.063Z,1003.51
2022-12-10T03:16:58.144Z,1003.51
2022-12-10T03:17:58.088Z,1003.51
2022-12-10T03:18:58.023Z,1003.51
2022-12-10T03:19:57.995Z,1003.50
2022-12-10T03:20:58.028Z,1003.50
2022-12-10T03:21:57.957Z,1003.51
2022-12-10T03:22:57.937Z,1003.52
2022-12-10T03:23:57.951Z,1003.53
2022-12-10T03:24:57.929Z,1003.54
2022-12-10T03:25:57.953Z,1003.56
2022-12-10T03:26:57.899Z,1003.56
2022-12-10T03:27:57.876Z,1003.57
2022-12-10T03:28:57.895Z,1003.57
2022-12-10T03:29:57.922Z,1003.58
2022-12-10T03:30:57.848Z,1003.57
2022-12-10T03:31:57.823Z,1003.56
2022-12-10T03:32:57.869Z,1003.54
2022-12-10T03:33:57.843Z,1003.52
2022-12-10T03:34:57.832Z,1003.51
2022-12-10T03:35:57.826Z,1003.50
2022-12-10T03:36:57.815Z,1003.49
2022-12-10T03:37:57.798Z,1003.49
2022-12-10T03:38:57.808Z,1003.50
2022-12-10T03:39:57.740Z,1003.51
2022-12-10T03:40:57.766Z,1003.51
2022-12-10T03:41:57.726Z,1003.52
2022-12-10T03:42:57.769Z,1003.52
2022-12-10T03:43:57.713Z,1003.52
2022-12-10T03:44:57.713Z,1003.52
2022-12-10T03:45:57.821Z,1003.53
2022-12-10T03:46:57.720Z,1003.54
2022-12-10T03:47:57.685Z,1003.55
2022-12-10T03:48:57.654Z,1003.55
2022-12-10T03:49:57.658Z,1003.56
2022-12-10T03:50:57.625Z,1003.57
2022-12-10T03:51:57.666Z,1003.57
2022-12-10T03:52:57.619Z,1003.58
2022-12-10T03:53:57.599Z,1003.58
2022-12-10T03:54:57.589Z,1003.57
2022-12-10T03:55:57.606Z,1003.57
2022-12-10T03:56:57.638Z,1003.58
2022-12-10T03:57:57.619Z,1003.60
2022-12-10T03:58:57.553Z,1003.61
2022-12-10T03:59:57.609Z,1003.62
2022-12-10T04:00:57.545Z,1003.62
2022-12-10T04:01:57.557Z,1003.62
2022-12-10T04:02:57.553Z,1003.61
2022-12-10T04:03:57.681Z,1003.59
2022-12-10T04:04:57.565Z,1003.58
2022-12-10T04:05:57.497Z,1003.58
2022-12-10T04:06:57.503Z,1003.58
2022-12-10T04:07:57.521Z,1003.58
2022-12-10T04:08:58.973Z,1003.58
2022-12-10T04:09:57.490Z,1003.59
2022-12-10T04:10:57.467Z,1003.59
2022-12-10T04:11:57.433Z,1003.59
2022-12-10T04:12:57.495Z,1003.60
2022-12-10T04:13:57.422Z,1003.60
2022-12-10T04:14:57.428Z,1003.62
2022-12-10T04:15:57.444Z,1003.63
2022-12-10T04:16:57.403Z,1003.64
2022-12-10T04:17:57.404Z,1003.65
2022-12-10T04:19:00.819Z,1003.65
2022-12-10T04:19:57.380Z,1003.66
2022-12-10T04:20:57.386Z,1003.66
2022-12-10T04:21:57.313Z,1003.67
2022-12-10T04:22:57.344Z,1003.67
2022-12-10T04:23:57.378Z,1003.67
2022-12-10T04:24:57.313Z,1003.67
2022-12-10T04:25:57.275Z,1003.68
2022-12-10T04:26:57.336Z,1003.68
2022-12-10T04:27:57.387Z,1003.68
2022-12-10T04:28:57.291Z,1003.67
2022-12-10T04:29:57.309Z,1003.66
2022-12-10T04:30:57.364Z,1003.65
2022-12-10T04:31:57.280Z,1003.64
2022-12-10T04:32:57.337Z,1003.64
2022-12-10T04:33:57.304Z,1003.62
2022-12-10T04:34:57.218Z,1003.62
2022-12-10T04:35:57.234Z,1003.60
2022-12-10T04:36:57.197Z,1003.58
2022-12-10T04:37:57.193Z,1003.57
2022-12-10T04:38:57.156Z,1003.56
2022-12-10T04:39:57.230Z,1003.55
2022-12-10T04:40:57.165Z,1003.54
2022-12-10T04:41:57.168Z,1003.55
2022-12-10T04:42:57.251Z,1003.55
2022-12-10T04:43:57.140Z,1003.56
2022-12-10T04:44:57.109Z,1003.57
2022-12-10T04:45:57.186Z,1003.58
2022-12-10T04:46:57.071Z,1003.58
2022-12-10T04:47:57.072Z,1003.57
2022-12-10T04:48:57.066Z,1003.58
2022-12-10T04:49:57.075Z,1003.58
2022-12-10T04:50:57.050Z,1003.58
2022-12-10T04:51:57.048Z,1003.59
2022-12-10T04:52:57.025Z,1003.61
2022-12-10T04:53:57.016Z,1003.63
2022-12-10T04:54:57.016Z,1003.64
2022-12-10T04:55:57.008Z,1003.64
2022-12-10T04:56:56.989Z,1003.63
2022-12-10T04:57:56.959Z,1003.62
2022-12-10T04:58:56.990Z,1003.61
2022-12-10T04:59:56.982Z,1003.60
2022-12-10T05:00:56.922Z,1003.59
2022-12-10T05:01:56.972Z,1003.59
2022-12-10T05:02:56.932Z,1003.59
2022-12-10T05:03:57.026Z,1003.59
2022-12-10T05:04:56.896Z,1003.59
2022-12-10T05:05:56.928Z,1003.59
2022-12-10T05:06:56.994Z,1003.60
2022-12-10T05:07:56.957Z,1003.60
2022-12-10T05:08:56.893Z,1003.60
2022-12-10T05:09:56.853Z,1003.61
2022-12-10T05:10:56.847Z,1003.62
2022-12-10T05:11:56.854Z,1003.63
2022-12-10T05:12:56.849Z,1003.65
2022-12-10T05:13:56.869Z,1003.66
2022-12-10T05:14:56.806Z,1003.66
2022-12-10T05:15:56.924Z,1003.67
2022-12-10T05:16:56.853Z,1003.67
2022-12-10T05:17:56.801Z,1003.67
2022-12-10T05:18:56.816Z,1003.68
2022-12-10T05:19:56.779Z,1003.68
2022-12-10T05:20:56.722Z,1003.68
2022-12-10T05:21:56.786Z,1003.67
2022-12-10T05:22:56.768Z,1003.66
2022-12-10T05:23:56.710Z,1003.66
2022-12-10T05:24:56.710Z,1003.66
2022-12-10T05:25:56.702Z,1003.67
2022-12-10T05:26:56.699Z,1003.68
2022-12-10T05:27:56.707Z,1003.70
2022-12-10T05:28:56.655Z,1003.71
2022-12-10T05:29:56.697Z,1003.72
2022-12-10T05:30:56.706Z,1003.73
2022-12-10T05:31:56.658Z,1003.73
2022-12-10T05:32:56.639Z,1003.73
2022-12-10T05:33:56.606Z,1003.73
2022-12-10T05:34:56.608Z,1003.72
2022-12-10T05:35:56.608Z,1003.71
2022-12-10T05:36:56.574Z,1003.71
2022-12-10T05:37:56.559Z,1003.72
2022-12-10T05:38:56.631Z,1003.73
2022-12-10T05:39:56.581Z,1003.74
2022-12-10T05:40:57.237Z,1003.76
2022-12-10T05:41:56.535Z,1003.77
2022-12-10T05:42:56.524Z,1003.77
2022-12-10T05:43:56.550Z,1003.77
2022-12-10T05:44:56.523Z,1003.77
2022-12-10T05:45:56.648Z,1003.76
2022-12-10T05:46:56.499Z,1003.76
2022-12-10T05:47:56.499Z,1003.76
2022-12-10T05:48:56.506Z,1003.76
2022-12-10T05:49:56.475Z,1003.76
2022-12-10T05:50:56.453Z,1003.76
2022-12-10T05:51:56.472Z,1003.77
2022-12-10T05:52:56.430Z,1003.79
2022-12-10T05:53:56.529Z,1003.80
2022-12-10T05:54:56.421Z,1003.82
2022-12-10T05:55:56.438Z,1003.83
2022-12-10T05:56:56.395Z,1003.84
2022-12-10T05:57:56.412Z,1003.84
2022-12-10T05:58:56.386Z,1003.84
2022-12-10T05:59:56.348Z,1003.84
2022-12-10T06:00:56.407Z,1003.84
2022-12-10T06:01:56.403Z,1003.84
2022-12-10T06:02:56.448Z,1003.83
2022-12-10T06:03:56.328Z,1003.83
2022-12-10T06:04:56.378Z,1003.83
2022-12-10T06:05:56.385Z,1003.83
2022-12-10T06:06:56.293Z,1003.83
2022-12-10T06:07:56.309Z,1003.84
2022-12-10T06:08:56.292Z,1003.85
2022-12-10T06:09:56.292Z,1003.85
2022-12-10T06:10:56.236Z,1003.85
2022-12-10T06:11:56.276Z,1003.86
2022-12-10T06:12:56.254Z,1003.86
2022-12-10T06:13:56.828Z,1003.86
2022-12-10T06:14:56.280Z,1003.86
2022-12-10T06:15:56.249Z,1003.87
2022-12-10T06:16:56.186Z,1003.89
2022-12-10T06:17:56.209Z,1003.90
2022-12-10T06:18:56.212Z,1003.90
2022-12-10T06:19:56.195Z,1003.90
2022-12-10T06:20:56.157Z,1003.90
2022-12-10T06:21:56.177Z,1003.90
2022-12-10T06:22:56.205Z,1003.90
2022-12-10T06:23:56.131Z,1003.90
2022-12-10T06:24:56.142Z,1003.89
2022-12-10T06:25:56.117Z,1003.89
2022-12-10T06:26:56.120Z,1003.89
2022-12-10T06:27:56.128Z,1003.88
2022-12-10T06:28:56.082Z,1003.87
2022-12-10T06:29:56.073Z,1003.87
2022-12-10T06:30:56.093Z,1003.87
2022-12-10T06:31:56.125Z,1003.87
2022-12-10T06:32:56.111Z,1003.88
2022-12-10T06:33:56.025Z,1003.89
2022-12-10T06:34:56.015Z,1003.90
2022-12-10T06:35:56.041Z,1003.91
2022-12-10T06:36:56.050Z,1003.91
2022-12-10T06:37:56.027Z,1003.91
2022-12-10T06:38:55.992Z,1003.91
2022-12-10T06:39:55.958Z,1003.91
2022-12-10T06:40:55.973Z,1003.91
2022-12-10T06:41:58.962Z,1003.91
2022-12-10T06:42:55.964Z,1003.91
2022-12-10T06:43:55.985Z,1003.91
2022-12-10T06:44:55.966Z,1003.91
2022-12-10T06:45:55.919Z,1003.92
2022-12-10T06:46:55.990Z,1003.93
2022-12-10T06:47:55.986Z,1003.93
2022-12-10T06:48:55.822Z,1003.93
2022-12-10T06:49:55.842Z,1003.93
2022-12-10T06:50:55.831Z,1003.94
2022-12-10T06:51:55.800Z,1003.95
2022-12-10T06:52:55.818Z,1003.97
2022-12-10T06:53:55.856Z,1003.98
2022-12-10T06:54:55.831Z,1004.00
2022-12-10T06:55:55.779Z,1004.02
2022-12-10T06:56:55.780Z,1004.03
2022-12-10T06:57:55.778Z,1004.05
2022-12-10T06:58:55.848Z,1004.06
2022-12-10T06:59:55.730Z,1004.08
2022-12-10T07:00:55.750Z,1004.09
2022-12-10T07:01:55.773Z,1004.09
2022-12-10T07:02:55.688Z,1004.11
2022-12-10T07:03:55.732Z,1004.11
2022-12-10T07:04:55.717Z,1004.12
2022-12-10T07:05:55.696Z,1004.12
2022-12-10T07:06:55.691Z,1004.13
2022-12-10T07:07:55.725Z,1004.14
2022-12-10T07:08:55.645Z,1004.15
2022-12-10T07:09:55.640Z,1004.15
2022-12-10T07:10:55.643Z,1004.16
2022-12-10T07:11:55.600Z,1004.16
2022-12-10T07:12:55.603Z,1004.17
2022-12-10T07:13:55.619Z,1004.18
2022-12-10T07:14:55.632Z,1004.19
2022-12-10T07:15:55.619Z,1004.19
2022-12-10T07:16:55.535Z,1004.21
2022-12-10T07:17:55.653Z,1004.23
2022-12-10T07:18:55.581Z,1004.24
2022-12-10T07:19:55.553Z,1004.26
2022-12-10T07:20:55.556Z,1004.27
2022-12-10T07:21:55.524Z,1004.29
2022-12-10T07:22:55.558Z,1004.29
2022-12-10T07:23:56.509Z,1004.29
2022-12-10T07:24:55.541Z,1004.30
2022-12-10T07:25:55.524Z,1004.31
2022-12-10T07:26:55.486Z,1004.34
2022-12-10T07:27:57.889Z,1004.35
2022-12-10T07:28:56.859Z,1004.37
2022-12-10T07:29:55.466Z,1004.38
2022-12-10T07:30:55.443Z,1004.38
2022-12-10T07:31:55.455Z,1004.38
2022-12-10T07:32:55.385Z,1004.38
2022-12-10T07:33:55.397Z,1004.39
2022-12-10T07:34:55.375Z,1004.39
2022-12-10T07:35:55.406Z,1004.41
2022-12-10T07:36:55.398Z,1004.43
2022-12-10T07:37:55.338Z,1004.45
2022-12-10T07:38:55.347Z,1004.46
2022-12-10T07:39:55.389Z,1004.49
2022-12-10T07:40:55.318Z,1004.49
2022-12-10T07:41:55.334Z,1004.50
2022-12-10T07:42:55.306Z,1004.50
2022-12-10T07:43:55.278Z,1004.51
2022-12-10T07:44:55.288Z,1004.51
2022-12-10T07:45:55.299Z,1004.51
2022-12-10T07:46:55.432Z,1004.50
2022-12-10T07:47:55.286Z,1004.51
2022-12-10T07:48:55.267Z,1004.51
2022-12-10T07:49:55.323Z,1004.53
2022-12-10T07:50:58.485Z,1004.54
2022-12-10T07:51:55.246Z,1004.56
2022-12-10T07:52:55.252Z,1004.57
2022-12-10T07:53:55.233Z,1004.57
2022-12-10T07:54:55.184Z,1004.57
2022-12-10T07:55:55.214Z,1004.59
2022-12-10T07:56:55.179Z,1004.59
2022-12-10T07:57:55.191Z,1004.59
2022-12-10T07:58:55.138Z,1004.58
2022-12-10T07:59:55.156Z,1004.56
2022-12-10T08:00:55.224Z,1004.55
2022-12-10T08:01:55.102Z,1004.53
2022-12-10T08:02:55.235Z,1004.53
2022-12-10T08:03:55.163Z,1004.54
2022-12-10T08:04:55.106Z,1004.55
2022-12-10T08:05:55.071Z,1004.56
2022-12-10T08:06:55.091Z,1004.57
2022-12-10T08:08:01.180Z,1004.58
2022-12-10T08:08:55.082Z,1004.59
2022-12-10T08:09:55.130Z,1004.60
2022-12-10T08:10:55.048Z,1004.62
2022-12-10T08:11:55.025Z,1004.63
2022-12-10T08:12:55.051Z,1004.67
2022-12-10T08:13:57.251Z,1004.69
2022-12-10T08:14:55.021Z,1004.67
2022-12-10T08:15:55.089Z,1004.68
2022-12-10T08:16:54.997Z,1004.70
2022-12-10T08:17:54.992Z,1004.72
2022-12-10T08:18:54.991Z,1004.73
2022-12-10T08:19:54.965Z,1004.75
2022-12-10T08:20:54.959Z,1004.75
2022-12-10T08:21:54.955Z,1004.76
2022-12-10T08:22:54.905Z,1004.76
2022-12-10T08:23:54.981Z,1004.77
2022-12-10T08:24:54.908Z,1004.79
2022-12-10T08:25:54.908Z,1004.81
2022-12-10T08:26:54.865Z,1004.81
2022-12-10T08:27:54.874Z,1004.83
2022-12-10T08:28:54.862Z,1004.84
2022-12-10T08:29:54.857Z,1004.86
2022-12-10T08:30:54.846Z,1004.87
2022-12-10T08:31:54.873Z,1004.88
2022-12-10T08:32:54.849Z,1004.89
2022-12-10T08:33:54.825Z,1004.89
2022-12-10T08:34:54.849Z,1004.89
2022-12-10T08:35:54.838Z,1004.90
2022-12-10T08:36:54.764Z,1004.92
2022-12-10T08:37:54.741Z,1004.92
2022-12-10T08:38:54.795Z,1004.94
2022-12-10T08:39:54.754Z,1004.96
2022-12-10T08:40:54.734Z,1004.97
2022-12-10T08:41:54.700Z,1004.98
2022-12-10T08:42:57.370Z,1004.99
2022-12-10T08:43:54.718Z,1005.02
2022-12-10T08:44:54.759Z,1005.04
2022-12-10T08:45:54.741Z,1005.06
2022-12-10T08:46:54.711Z,1005.08
2022-12-10T08:47:54.653Z,1005.10
2022-12-10T08:48:54.684Z,1005.11
2022-12-10T08:49:54.636Z,1005.10
2022-12-10T08:50:54.633Z,1005.11
2022-12-10T08:51:54.635Z,1005.11
2022-12-10T08:52:54.667Z,1005.11
2022-12-10T08:53:54.631Z,1005.11
2022-12-10T08:54:54.601Z,1005.12
2022-12-10T08:55:54.606Z,1005.12
2022-12-10T08:56:54.612Z,1005.12
2022-12-10T08:57:54.570Z,1005.12
2022-12-10T08:58:54.566Z,1005.12
2022-12-10T08:59:54.522Z,1005.12
2022-12-10T09:00:54.587Z,1005.13
2022-12-10T09:01:56.586Z,1005.14
2022-12-10T09:02:54.575Z,1005.17
2022-12-10T09:03:54.506Z,1005.19
2022-12-10T09:04:54.508Z,1005.22
2022-12-10T09:05:54.520Z,1005.23
2022-12-10T09:06:54.559Z,1005.25
2022-12-10T09:07:54.513Z,1005.27
2022-12-10T09:08:54.489Z,1005.28
2022-12-10T09:09:54.468Z,1005.30
2022-12-10T09:10:54.472Z,1005.31
2022-12-10T09:11:54.459Z,1005.31
2022-12-10T09:12:58.572Z,1005.31
2022-12-10T09:13:54.413Z,1005.32
2022-12-10T09:14:54.443Z,1005.33
2022-12-10T09:15:54.372Z,1005.34
2022-12-10T09:16:54.469Z,1005.35
2022-12-10T09:17:54.409Z,1005.36
2022-12-10T09:18:54.440Z,1005.36
2022-12-10T09:19:54.380Z,1005.38
2022-12-10T09:20:54.397Z,1005.38
2022-12-10T09:21:54.316Z,1005.39
2022-12-10T09:22:54.333Z,1005.40
2022-12-10T09:23:54.323Z,1005.42
2022-12-10T09:24:54.315Z,1005.43
2022-12-10T09:25:54.300Z,1005.44
2022-12-10T09:26:54.325Z,1005.46
2022-12-10T09:27:54.294Z,1005.47
2022-12-10T09:28:54.252Z,1005.47
2022-12-10T09:29:54.221Z,1005.48
2022-12-10T09:30:54.237Z,1005.49
2022-12-10T09:31:54.348Z,1005.51
2022-12-10T09:32:54.244Z,1005.52
2022-12-10T09:33:54.231Z,1005.54
2022-12-10T09:34:54.223Z,1005.55
2022-12-10T09:35:54.177Z,1005.57
2022-12-10T09:36:54.196Z,1005.57
2022-12-10T09:37:54.204Z,1005.57
2022-12-10T09:38:54.162Z,1005.57
2022-12-10T09:39:54.136Z,1005.55
2022-12-10T09:40:54.180Z,1005.56
2022-12-10T09:41:54.132Z,1005.56
2022-12-10T09:42:54.163Z,1005.55
2022-12-10T09:43:54.116Z,1005.55
2022-12-10T09:44:54.146Z,1005.56
2022-12-10T09:45:54.127Z,1005.56
2022-12-10T09:46:54.085Z,1005.56
2022-12-10T09:47:54.107Z,1005.57
2022-12-10T09:48:54.144Z,1005.56
2022-12-10T09:49:54.125Z,1005.55
2022-12-10T09:50:54.146Z,1005.54
2022-12-10T09:51:54.031Z,1005.53
2022-12-10T09:52:54.030Z,1005.53
2022-12-10T09:53:54.046Z,1005.51
2022-12-10T09:54:54.063Z,1005.49
2022-12-10T09:55:53.983Z,1005.47
2022-12-10T09:56:53.990Z,1005.46
2022-12-10T09:57:53.978Z,1005.45
2022-12-10T09:58:54.006Z,1005.44
2022-12-10T09:59:53.977Z,1005.42
2022-12-10T10:00:53.982Z,1005.41
2022-12-10T10:01:54.091Z,1005.40
2022-12-10T10:02:53.962Z,1005.38
2022-12-10T10:03:53.960Z,1005.38
2022-12-10T10:04:53.894Z,1005.37
2022-12-10T10:05:54.980Z,1005.37
2022-12-10T10:06:53.876Z,1005.38
2022-12-10T10:07:53.904Z,1005.38
2022-12-10T10:08:53.885Z,1005.38
2022-12-10T10:09:53.859Z,1005.37
2022-12-10T10:10:53.924Z,1005.37
2022-12-10T10:11:53.900Z,1005.38
2022-12-10T10:12:53.823Z,1005.38
2022-12-10T10:13:53.815Z,1005.37
2022-12-10T10:14:53.805Z,1005.37
2022-12-10T10:15:53.869Z,1005.36
2022-12-10T10:16:53.855Z,1005.35
2022-12-10T10:17:53.803Z,1005.35
2022-12-10T10:18:53.772Z,1005.35
2022-12-10T10:19:53.737Z,1005.36
2022-12-10T10:20:53.755Z,1005.35
2022-12-10T10:21:53.727Z,1005.35
2022-12-10T10:22:53.732Z,1005.36
2022-12-10T10:23:53.736Z,1005.37
2022-12-10T10:24:53.719Z,1005.38
2022-12-10T10:25:53.704Z,1005.38
2022-12-10T10:26:53.705Z,1005.38
2022-12-10T10:27:53.656Z,1005.38
2022-12-10T10:28:53.668Z,1005.38
2022-12-10T10:29:57.929Z,1005.39
2022-12-10T10:30:53.821Z,1005.39
2022-12-10T10:31:53.647Z,1005.39
2022-12-10T10:32:53.712Z,1005.37
2022-12-10T10:33:53.675Z,1005.37
2022-12-10T10:34:53.679Z,1005.37
2022-12-10T10:35:53.652Z,1005.37
2022-12-10T10:36:53.645Z,1005.37
2022-12-10T10:37:53.657Z,1005.36
2022-12-10T10:38:53.584Z,1005.36
2022-12-10T10:39:53.567Z,1005.36
2022-12-10T10:40:53.570Z,1005.37
2022-12-10T10:41:57.893Z,1005.38
2022-12-10T10:42:53.540Z,1005.40
2022-12-10T10:43:53.525Z,1005.40
2022-12-10T10:44:53.525Z,1005.41
2022-12-10T10:45:53.540Z,1005.40
2022-12-10T10:46:53.556Z,1005.39
2022-12-10T10:47:53.510Z,1005.39
2022-12-10T10:48:53.550Z,1005.40
2022-12-10T10:49:53.487Z,1005.39
2022-12-10T10:50:53.471Z,1005.40
2022-12-10T10:51:53.448Z,1005.40
2022-12-10T10:52:53.489Z,1005.40
2022-12-10T10:53:53.454Z,1005.40
2022-12-10T10:54:53.448Z,1005.41
2022-12-10T10:55:53.424Z,1005.40
2022-12-10T10:56:53.436Z,1005.40
2022-12-10T10:57:53.469Z,1005.39
2022-12-10T10:58:53.384Z,1005.39
2022-12-10T10:59:53.406Z,1005.38
2022-12-10T11:00:53.425Z,1005.39
2022-12-10T11:01:53.330Z,1005.39
2022-12-10T11:02:53.395Z,1005.40
2022-12-10T11:03:53.384Z,1005.39
2022-12-10T11:04:53.343Z,1005.39
2022-12-10T11:05:53.367Z,1005.38
2022-12-10T11:06:53.555Z,1005.39
2022-12-10T11:07:53.369Z,1005.39
2022-12-10T11:08:53.345Z,1005.39
2022-12-10T11:09:53.390Z,1005.39
2022-12-10T11:10:53.392Z,1005.40
2022-12-10T11:11:53.259Z,1005.40
2022-12-10T11:12:53.289Z,1005.40
2022-12-10T11:13:53.313Z,1005.40
2022-12-10T11:14:53.377Z,1005.42
2022-12-10T11:15:53.263Z,1005.42
2022-12-10T11:16:53.382Z,1005.43
2022-12-10T11:17:53.277Z,1005.43
2022-12-10T11:18:53.326Z,1005.41
2022-12-10T11:19:53.268Z,1005.40
2022-12-10T11:20:53.469Z,1005.39
2022-12-10T11:21:53.197Z,1005.40
2022-12-10T11:22:53.211Z,1005.40
2022-12-10T11:23:53.168Z,1005.42
2022-12-10T11:24:53.107Z,1005.43
2022-12-10T11:25:53.111Z,1005.44
2022-12-10T11:26:53.094Z,1005.45
2022-12-10T11:27:53.112Z,1005.45
2022-12-10T11:28:53.108Z,1005.45
2022-12-10T11:29:53.077Z,1005.46
2022-12-10T11:30:53.140Z,1005.47
2022-12-10T11:31:53.078Z,1005.47
2022-12-10T11:32:53.078Z,1005.47
2022-12-10T11:33:53.045Z,1005.46
2022-12-10T11:34:53.105Z,1005.44
2022-12-10T11:35:53.039Z,1005.43
2022-12-10T11:36:53.078Z,1005.41
2022-12-10T11:37:53.030Z,1005.40
2022-12-10T11:38:52.984Z,1005.40
2022-12-10T11:39:53.028Z,1005.40
2022-12-10T11:40:53.025Z,1005.41
2022-12-10T11:41:53.002Z,1005.41
2022-12-10T11:42:52.955Z,1005.42
2022-12-10T11:43:52.943Z,1005.42
2022-12-10T11:44:52.918Z,1005.43
2022-12-10T11:45:52.968Z,1005.43
2022-12-10T11:46:52.901Z,1005.42
2022-12-10T11:47:52.908Z,1005.40
2022-12-10T11:48:52.880Z,1005.39
2022-12-10T11:49:52.942Z,1005.37
2022-12-10T11:50:52.899Z,1005.35
2022-12-10T11:51:52.893Z,1005.32
2022-12-10T11:52:52.908Z,1005.32
2022-12-10T11:53:52.854Z,1005.30
2022-12-10T11:54:52.848Z,1005.31
2022-12-10T11:55:52.841Z,1005.31
2022-12-10T11:56:52.799Z,1005.32
2022-12-10T11:57:52.827Z,1005.33
2022-12-10T11:58:52.875Z,1005.35
2022-12-10T12:00:07.942Z,1005.36
2022-12-10T12:00:59.069Z,1005.36
2022-12-10T12:01:52.768Z,1005.38
2022-12-10T12:02:52.845Z,1005.38
2022-12-10T12:03:52.811Z,1005.39
2022-12-10T12:04:52.723Z,1005.39
2022-12-10T12:05:52.723Z,1005.39